createdAt,value
2023-04-18T00:03:33.892Z,16962.91
2023-04-18T00:07:37.143Z,16950.63
2023-04-18T00:11:38.817Z,16964.97
2023-04-18T00:15:40.169Z,16940.41
2023-04-18T00:19:41.606Z,16942.47
2023-04-18T00:23:44.451Z,16952.69
2023-04-18T00:27:45.939Z,16917.91
2023-04-18T00:31:47.304Z,16946.53
2023-04-18T00:35:48.781Z,16991.53
2023-04-18T00:39:51.824Z,16942.47
2023-04-18T00:43:53.727Z,16946.53
2023-04-18T00:47:55.764Z,16926.09
2023-04-18T00:51:57.358Z,16958.81
2023-04-18T00:56:00.356Z,16964.97
2023-04-18T01:00:04.840Z,16956.78
2023-04-18T01:04:06.579Z,16971.09
2023-04-18T01:08:08.204Z,16958.81
2023-04-18T01:12:10.928Z,16958.81
2023-04-18T01:16:12.400Z,16942.47
2023-04-18T01:20:14.052Z,16975.19
2023-04-18T01:24:17.762Z,16954.72
2023-04-18T01:28:20.555Z,16950.63
2023-04-18T01:32:22.370Z,16938.38
2023-04-18T01:36:24.200Z,16926.09
2023-04-18T01:40:27.670Z,16948.59
2023-04-18T01:44:29.057Z,16958.81
2023-04-18T01:48:30.436Z,16979.28
2023-04-18T01:52:31.823Z,16934.28
2023-04-18T01:56:34.583Z,16926.09
2023-04-18T02:00:36.269Z,16924.06
2023-04-18T02:04:37.948Z,16958.81
2023-04-18T02:08:39.518Z,16926.09
2023-04-18T02:12:42.466Z,16897.47
2023-04-18T02:16:43.873Z,16938.38
2023-04-18T02:20:45.360Z,16901.56
2023-04-18T02:24:46.741Z,16911.78
2023-04-18T02:28:49.659Z,16893.38
2023-04-18T02:32:51.037Z,16856.56
2023-04-18T02:36:52.462Z,16885.19
2023-04-18T02:40:53.875Z,16885.19
2023-04-18T02:44:56.655Z,16885.19
2023-04-18T02:48:58.133Z,16887.25
2023-04-18T02:52:59.522Z,16870.88
2023-04-18T02:57:01.107Z,16860.66
2023-04-18T03:01:03.987Z,16889.28
2023-04-18T03:05:06.055Z,16856.56
2023-04-18T03:09:07.696Z,16860.66
2023-04-18T03:13:09.076Z,16872.91
2023-04-18T03:17:12.077Z,16848.38
2023-04-18T03:21:13.506Z,16838.16
2023-04-18T03:25:15.288Z,16887.25
2023-04-18T03:29:16.761Z,16834.06
2023-04-18T03:33:19.765Z,16848.38
2023-04-18T03:37:21.295Z,16836.09
2023-04-18T03:41:22.932Z,16848.38
2023-04-18T03:45:24.414Z,16838.16
2023-04-18T03:49:27.447Z,16813.63
2023-04-18T03:53:28.938Z,16827.94
2023-04-18T03:57:30.341Z,16842.25
2023-04-18T04:01:31.871Z,16827.94
2023-04-18T04:05:34.709Z,16834.06
2023-04-18T04:09:36.303Z,16848.38
2023-04-18T04:13:37.719Z,16840.19
2023-04-18T04:17:39.133Z,16840.19
2023-04-18T04:21:41.861Z,16832.03
2023-04-18T04:25:43.298Z,16836.09
2023-04-18T04:29:44.662Z,16846.34
2023-04-18T04:33:46.079Z,16838.16
2023-04-18T04:37:48.911Z,16795.22
2023-04-18T04:41:50.501Z,16817.69
2023-04-18T04:45:51.933Z,16805.44
2023-04-18T04:49:53.323Z,16836.09
2023-04-18T04:53:56.087Z,16793.16
2023-04-18T04:57:57.477Z,16791.13
2023-04-18T05:01:58.892Z,16795.22
2023-04-18T05:06:00.321Z,16803.38
2023-04-18T05:10:03.215Z,16823.84
2023-04-18T05:14:04.568Z,16834.06
2023-04-18T05:18:06.027Z,16819.75
2023-04-18T05:22:07.559Z,16817.69
2023-04-18T05:26:10.335Z,16838.16
2023-04-18T05:30:11.951Z,16832.03
2023-04-18T05:34:13.803Z,16840.19
2023-04-18T05:38:15.362Z,16862.69
2023-04-18T05:42:18.099Z,16877.00
2023-04-18T05:46:19.793Z,16856.56
2023-04-18T05:50:21.257Z,16879.06
2023-04-18T05:54:22.663Z,16938.38
2023-04-18T05:58:26.499Z,16950.63
2023-04-18T06:02:28.189Z,16999.72
2023-04-18T06:06:29.785Z,16969.03
2023-04-18T06:10:31.248Z,17118.34
2023-04-18T06:14:34.102Z,17241.06
2023-04-18T06:18:35.541Z,17249.25
2023-04-18T06:22:36.966Z,17249.25
2023-04-18T06:26:38.405Z,17114.25
2023-04-18T06:30:41.376Z,17345.38
2023-04-18T06:34:42.772Z,17194.03
2023-04-18T06:38:44.353Z,17292.19
2023-04-18T06:42:46.108Z,17461.97
2023-04-18T06:46:49.355Z,17717.66
2023-04-18T06:50:50.771Z,17760.63
2023-04-18T06:54:52.407Z,17457.88
2023-04-18T06:58:53.895Z,17670.63
2023-04-18T07:02:57.016Z,17848.59
2023-04-18T07:06:58.588Z,17584.69
2023-04-18T07:11:00.022Z,17590.84
2023-04-18T07:15:01.403Z,17781.09
2023-04-18T07:19:04.215Z,17738.13
2023-04-18T07:23:07.677Z,17954.97
2023-04-18T07:27:09.168Z,18112.50
2023-04-18T07:31:10.662Z,18130.91
2023-04-18T07:35:13.684Z,18241.38
2023-04-18T07:39:15.154Z,18280.25
2023-04-18T07:43:16.601Z,18358.00
2023-04-18T07:47:22.397Z,18317.06
2023-04-18T07:51:26.171Z,18077.72
2023-04-18T07:55:27.637Z,18124.75
2023-04-18T07:59:29.284Z,18241.38
2023-04-18T08:03:30.875Z,18169.78
2023-04-18T08:07:33.874Z,17930.41
2023-04-18T08:11:35.511Z,17877.22
2023-04-18T08:15:36.964Z,17641.97
2023-04-18T08:19:38.373Z,17578.56
2023-04-18T08:23:41.355Z,17961.09
2023-04-18T08:27:43.072Z,17967.25
2023-04-18T08:31:44.554Z,17748.34
2023-04-18T08:35:46.283Z,17858.81
2023-04-18T08:39:49.121Z,18057.25
2023-04-18T08:43:50.927Z,17822.00
2023-04-18T08:47:52.457Z,17484.47
2023-04-18T08:51:53.916Z,17549.94
2023-04-18T08:55:56.842Z,17627.66
2023-04-18T08:59:58.330Z,17427.19
2023-04-18T09:03:59.824Z,17433.34
2023-04-18T09:08:22.260Z,17421.06
2023-04-18T09:12:26.498Z,17429.25
2023-04-18T09:16:28.599Z,17396.53
2023-04-18T09:20:33.063Z,17339.25
2023-04-18T09:24:34.493Z,17406.75
2023-04-18T09:28:37.339Z,17343.34
2023-04-18T09:32:39.076Z,17277.88
2023-04-18T09:36:40.515Z,17292.19
2023-04-18T09:40:41.928Z,17261.53
2023-04-18T09:45:02.241Z,17326.97
2023-04-18T09:49:03.800Z,17273.78
2023-04-18T09:53:07.861Z,17367.88
2023-04-18T09:57:11.074Z,17703.34
2023-04-18T10:01:14.028Z,17449.69
2023-04-18T10:05:17.621Z,17363.78
2023-04-18T10:09:22.097Z,17365.84
2023-04-18T10:13:24.585Z,17416.97
2023-04-18T10:17:29.795Z,17764.72
2023-04-18T10:21:31.272Z,17682.88
2023-04-18T10:25:48.781Z,17527.44
2023-04-18T10:29:51.512Z,17527.44
2023-04-18T10:34:03.930Z,17957.00
2023-04-18T10:38:16.642Z,18169.78
2023-04-18T10:42:18.109Z,18079.75
2023-04-18T10:46:30.905Z,17819.94
2023-04-18T10:50:34.926Z,17723.81
2023-04-18T10:54:41.610Z,17736.06
2023-04-18T10:58:49.123Z,17736.06
2023-04-18T11:02:53.079Z,17623.56
2023-04-18T11:06:56.255Z,17756.53
2023-04-18T11:10:58.252Z,17711.53
2023-04-18T11:15:01.362Z,17686.97
2023-04-18T11:19:17.985Z,17658.34
2023-04-18T11:23:22.145Z,17625.63
2023-04-18T11:27:24.994Z,17621.53
2023-04-18T11:31:26.661Z,17654.25
2023-04-18T11:35:28.490Z,17613.34
2023-04-18T11:39:34.020Z,17633.78
2023-04-18T11:43:35.474Z,17631.75
2023-04-18T11:47:36.937Z,17646.06
2023-04-18T11:51:38.559Z,17641.97
2023-04-18T11:55:41.598Z,17762.66
2023-04-18T11:59:48.479Z,17609.25
2023-04-18T12:04:04.030Z,17596.97
2023-04-18T12:08:07.263Z,17572.44
2023-04-18T12:12:10.109Z,17551.97
2023-04-18T12:16:12.202Z,17502.88
2023-04-18T12:20:14.968Z,17527.44
2023-04-18T12:24:16.929Z,17543.78
2023-04-18T12:28:19.725Z,17541.75
2023-04-18T12:32:21.392Z,17564.25
2023-04-18T12:36:22.823Z,17596.97
2023-04-18T12:40:25.158Z,17582.66
2023-04-18T12:44:27.863Z,17609.25
2023-04-18T12:48:29.291Z,17584.69
2023-04-18T12:52:30.666Z,17568.34
2023-04-18T12:56:32.077Z,17562.19
2023-04-18T13:00:36.126Z,17547.88
2023-04-18T13:04:37.762Z,17551.97
2023-04-18T13:08:39.547Z,17551.97
2023-04-18T13:12:41.557Z,17592.88
2023-04-18T13:16:44.361Z,17543.78
2023-04-18T13:20:46.031Z,17562.19
2023-04-18T13:24:48.105Z,17582.66
2023-04-18T13:28:49.512Z,17605.16
2023-04-18T13:32:52.462Z,17740.16
2023-04-18T13:36:53.948Z,17682.88
2023-04-18T13:41:04.728Z,17809.72
2023-04-18T13:45:10.863Z,17826.09
2023-04-18T13:49:13.848Z,17846.53
2023-04-18T13:53:15.378Z,17950.88
2023-04-18T13:57:17.021Z,17858.81
2023-04-18T14:01:18.534Z,17877.22
2023-04-18T14:05:21.286Z,17762.66
2023-04-18T14:09:22.709Z,17840.41
2023-04-18T14:13:24.194Z,17840.41
2023-04-18T14:17:25.700Z,17811.75
2023-04-18T14:21:29.300Z,17752.44
2023-04-18T14:25:30.689Z,17684.94
2023-04-18T14:29:32.313Z,17772.91
2023-04-18T14:33:33.914Z,17830.19
2023-04-18T14:37:36.964Z,17817.91
2023-04-18T14:41:38.574Z,17709.47
2023-04-18T14:45:44.982Z,17695.16
2023-04-18T14:49:46.448Z,17707.44
2023-04-18T14:53:49.686Z,17678.81
2023-04-18T14:57:56.870Z,17672.66
2023-04-18T15:01:58.540Z,17650.16
2023-04-18T15:06:00.172Z,17670.63
2023-04-18T15:10:03.235Z,17637.88
2023-04-18T15:14:04.675Z,17605.16
2023-04-18T15:18:14.023Z,17682.88
2023-04-18T15:22:15.440Z,17631.75
2023-04-18T15:26:18.178Z,17619.47
2023-04-18T15:30:19.786Z,17676.75
2023-04-18T15:34:21.199Z,17654.25
2023-04-18T15:38:22.702Z,17635.84
2023-04-18T15:42:25.497Z,17652.22
2023-04-18T15:46:27.134Z,17676.75
2023-04-18T15:50:28.817Z,17674.72
2023-04-18T15:54:31.604Z,17631.75
2023-04-18T15:58:34.496Z,17631.75
2023-04-18T16:02:36.172Z,17592.88
2023-04-18T16:06:37.664Z,17539.69
2023-04-18T16:10:39.119Z,17519.25
2023-04-18T16:14:42.194Z,17547.88
2023-04-18T16:18:43.638Z,17525.38
2023-04-18T16:22:45.034Z,17564.25
2023-04-18T16:26:46.438Z,17523.34
2023-04-18T16:30:49.266Z,17562.19
2023-04-18T16:34:50.744Z,17556.06
2023-04-18T16:38:52.194Z,17531.53
2023-04-18T16:42:53.667Z,17543.78
2023-04-18T16:46:56.423Z,17525.38
2023-04-18T16:50:57.917Z,17568.34
2023-04-18T16:54:59.379Z,17502.88
2023-04-18T16:59:01.031Z,17539.69
2023-04-18T17:03:04.062Z,17535.59
2023-04-18T17:07:05.474Z,17523.34
2023-04-18T17:11:06.870Z,17543.78
2023-04-18T17:15:08.680Z,17535.59
2023-04-18T17:19:11.675Z,17554.03
2023-04-18T17:23:13.249Z,17531.53
2023-04-18T17:27:14.723Z,17504.94
2023-04-18T17:31:16.238Z,17519.25
2023-04-18T17:35:19.277Z,17527.44
2023-04-18T17:39:20.884Z,17537.66
2023-04-18T17:43:22.331Z,17529.47
2023-04-18T17:47:23.820Z,17519.25
2023-04-18T17:51:26.830Z,17484.47
2023-04-18T17:55:28.429Z,17443.56
2023-04-18T17:59:29.837Z,17445.59
2023-04-18T18:03:31.488Z,17447.66
2023-04-18T18:07:34.578Z,17466.06
2023-04-18T18:11:36.451Z,17466.06
2023-04-18T18:15:38.205Z,17451.75
2023-04-18T18:19:39.617Z,17466.06
2023-04-18T18:23:42.863Z,17404.69
2023-04-18T18:27:44.430Z,17384.25
2023-04-18T18:31:45.969Z,17349.47
2023-04-18T18:35:47.513Z,17380.16
2023-04-18T18:39:50.422Z,17398.56
2023-04-18T18:43:52.069Z,17412.88
2023-04-18T18:47:53.543Z,17388.34
2023-04-18T18:51:54.993Z,17392.44
2023-04-18T18:55:57.872Z,17376.06
2023-04-18T18:59:59.320Z,17400.59
2023-04-18T19:04:00.955Z,17416.97
2023-04-18T19:08:02.613Z,17400.59
2023-04-18T19:12:06.264Z,17384.25
2023-04-18T19:16:07.802Z,17378.09
2023-04-18T19:20:09.507Z,17388.34
2023-04-18T19:24:10.950Z,17347.44
2023-04-18T19:28:13.733Z,17392.44
2023-04-18T19:32:15.224Z,17371.97
2023-04-18T19:36:16.682Z,17341.28
2023-04-18T19:40:18.166Z,17353.56
2023-04-18T19:44:20.928Z,17386.28
2023-04-18T19:48:22.360Z,17339.25
2023-04-18T19:52:23.894Z,17386.28
2023-04-18T19:56:25.342Z,17390.38
2023-04-18T20:00:28.159Z,17380.16
2023-04-18T20:04:29.907Z,17361.75
2023-04-18T20:08:31.896Z,17351.53
2023-04-18T20:12:33.334Z,17363.78
2023-04-18T20:16:36.486Z,17392.44
2023-04-18T20:20:37.970Z,17359.69
2023-04-18T20:24:39.576Z,17355.59
2023-04-18T20:28:41.036Z,17380.16
2023-04-18T20:32:44.329Z,17369.94
2023-04-18T20:36:46.024Z,17355.59
2023-04-18T20:40:47.453Z,17374.03
2023-04-18T20:44:48.871Z,17314.69
2023-04-18T20:48:52.934Z,17384.25
2023-04-18T20:52:54.395Z,17337.19
2023-04-18T20:56:56.034Z,17374.03
2023-04-18T21:00:57.455Z,17351.53
2023-04-18T21:05:00.220Z,17304.47
2023-04-18T21:09:01.706Z,17337.19
2023-04-18T21:13:03.200Z,17339.25
2023-04-18T21:17:04.590Z,17355.59
2023-04-18T21:21:07.403Z,17335.16
2023-04-18T21:25:09.879Z,17316.75
2023-04-18T21:29:11.509Z,17318.78
2023-04-18T21:33:13.219Z,17306.53
2023-04-18T21:37:16.162Z,17339.25
2023-04-18T21:41:17.574Z,17335.16
2023-04-18T21:45:19.251Z,17310.63
2023-04-18T21:49:20.627Z,17339.25
2023-04-18T21:53:23.682Z,17308.56
2023-04-18T21:57:25.064Z,17296.28
2023-04-18T22:01:28.731Z,17337.19
2023-04-18T22:05:32.977Z,17326.97
2023-04-18T22:09:36.073Z,17322.88
2023-04-18T22:13:37.702Z,17341.28
2023-04-18T22:17:39.136Z,17318.78
2023-04-18T22:25:43.496Z,17292.19
2023-04-18T22:29:44.967Z,17298.34
2023-04-18T22:33:46.339Z,17290.16
2023-04-18T22:37:47.944Z,17298.34
2023-04-18T22:41:50.686Z,17314.69
2023-04-18T22:45:52.406Z,17271.75
2023-04-18T22:49:54.080Z,17249.25
2023-04-18T22:53:55.576Z,17300.38
2023-04-18T22:57:58.280Z,17322.88
2023-04-18T23:02:00.022Z,17294.25
2023-04-18T23:06:01.836Z,17288.13
2023-04-18T23:10:05.366Z,17279.94
2023-04-18T23:14:08.243Z,17294.25
2023-04-18T23:18:09.946Z,17277.88
2023-04-18T23:22:11.383Z,17257.44
2023-04-18T23:26:13.872Z,17273.78
2023-04-18T23:30:16.618Z,17273.78
2023-04-18T23:34:18.217Z,17265.63
2023-04-18T23:38:19.930Z,17269.69
2023-04-18T23:42:21.338Z,17294.25
2023-04-18T23:46:24.136Z,17241.06
2023-04-18T23:50:25.816Z,17294.25
2023-04-18T23:54:27.243Z,17279.94
2023-04-18T23:58:28.651Z,17247.19
